Time;durP1;ratioP1;P1;durP2;ratioP2;P2;SDS_P1;SDS_P2;PMS_P1;PMS_P2;Temp;Humidity;BMP_temperature;BMP_pressure;BME280_temperature;BME280_humidity;BME280_pressure;Samples;Min_cycle;Max_cycle;Signal;HPM_P1;HPM_P2
2023/06/08 00:02:06;;;;;;;14.50;11.10;;;;;;;-128.00;-1.00;-1.00;102160;1263;1005316;-78
2023/06/08 00:04:33;;;;;;;15.60;12.50;;;;;;;-128.00;-1.00;-1.00;102165;1263;1005871;-79
2023/06/08 00:07:00;;;;;;;18.90;12.80;;;;;;;-128.00;-1.00;-1.00;102660;1263;1004912;-80
2023/06/08 00:09:27;;;;;;;15.80;13.10;;;;;;;-128.00;-1.00;-1.00;102574;1265;1003681;-81
2023/06/08 00:11:55;;;;;;;14.10;11.60;;;;;;;-128.00;-1.00;-1.00;102720;1259;1006221;-80
2023/06/08 00:14:21;;;;;;;16.70;11.90;;;;;;;-128.00;-1.00;-1.00;102667;1263;1004664;-79
2023/06/08 00:16:48;;;;;;;15.50;11.80;;;;;;;-128.00;-1.00;-1.00;102599;1260;1004586;-81
2023/06/08 00:19:15;;;;;;;18.40;12.80;;;;;;;-128.00;-1.00;-1.00;102668;1263;1005719;-79
2023/06/08 00:21:43;;;;;;;16.30;11.80;;;;;;;-128.00;-1.00;-1.00;102657;1260;1004805;-81
2023/06/08 00:24:09;;;;;;;14.30;12.10;;;;;;;-128.00;-1.00;-1.00;102667;1263;1003676;-81
2023/06/08 00:26:36;;;;;;;16.20;12.00;;;;;;;-128.00;-1.00;-1.00;102641;1259;1004891;-81
2023/06/08 00:29:03;;;;;;;15.80;11.80;;;;;;;-128.00;-1.00;-1.00;102637;1260;1004937;-79
2023/06/08 00:31:29;;;;;;;18.90;12.10;;;;;;;-128.00;-1.00;-1.00;102633;1261;1005228;-78
2023/06/08 00:33:55;;;;;;;18.20;13.20;;;;;;;-128.00;-1.00;-1.00;102639;1264;1004398;-79
2023/06/08 00:36:22;;;;;;;17.00;12.80;;;;;;;-128.00;-1.00;-1.00;102661;1263;1005659;-79
2023/06/08 00:38:48;;;;;;;17.40;12.80;;;;;;;-128.00;-1.00;-1.00;102729;1259;1004135;-82
2023/06/08 00:41:15;;;;;;;16.80;13.60;;;;;;;-128.00;-1.00;-1.00;102612;1261;1006028;-79
2023/06/08 00:43:45;;;;;;;16.40;12.10;;;;;;;-128.00;-1.00;-1.00;102676;1261;1004245;-81
2023/06/08 00:46:13;;;;;;;17.40;13.40;;;;;;;-128.00;-1.00;-1.00;102573;1261;1049845;-82
2023/06/08 00:48:40;;;;;;;18.50;14.00;;;;;;;-128.00;-1.00;-1.00;105209;1259;1062208;-82
2023/06/08 00:51:07;;;;;;;17.80;13.80;;;;;;;-128.00;-1.00;-1.00;104065;1260;1005431;-79
2023/06/08 00:53:35;;;;;;;19.50;14.30;;;;;;;-128.00;-1.00;-1.00;102712;1259;1005065;-81
2023/06/08 00:56:01;;;;;;;17.50;13.30;;;;;;;-128.00;-1.00;-1.00;102604;1266;1004058;-81
2023/06/08 00:58:28;;;;;;;19.30;13.80;;;;;;;-128.00;-1.00;-1.00;102705;1263;1004787;-79
2023/06/08 01:01:03;;;;;;;16.10;11.80;;;;;;;-128.00;-1.00;-1.00;102628;1260;1004313;-79
2023/06/08 01:03:35;;;;;;;17.20;12.90;;;;;;;-128.00;-1.00;-1.00;102686;1263;1060479;-81
2023/06/08 01:06:02;;;;;;;18.80;13.50;;;;;;;-128.00;-1.00;-1.00;102645;1261;1064091;-82
2023/06/08 01:09:06;;;;;;;21.80;14.50;;;;;;;-128.00;-1.00;-1.00;102695;1263;1004242;-81
2023/06/08 01:11:42;;;;;;;19.90;15.60;;;;;;;-128.00;-1.00;-1.00;102713;1263;1047564;-79
2023/06/08 01:14:31;;;;;;;17.60;15.20;;;;;;;-128.00;-1.00;-1.00;102549;1264;1063412;-81
2023/06/08 01:17:02;;;;;;;17.80;13.70;;;;;;;-128.00;-1.00;-1.00;102559;1264;1058497;-79
2023/06/08 01:20:11;;;;;;;22.90;20.20;;;;;;;-128.00;-1.00;-1.00;102877;1259;1059441;-81
2023/06/08 01:22:56;;;;;;;26.10;21.40;;;;;;;-128.00;-1.00;-1.00;102412;1260;1047298;-79
2023/06/08 01:25:25;;;;;;;20.80;15.80;;;;;;;-128.00;-1.00;-1.00;102667;1260;1047976;-79
2023/06/08 01:27:58;;;;;;;;;;;;;;;-128.00;-1.00;-1.00;102619;1259;1063277;-81
2023/06/08 01:30:25;;;;;;;18.80;14.50;;;;;;;-128.00;-1.00;-1.00;102716;1260;1057841;-80
2023/06/08 01:32:52;;;;;;;23.90;15.90;;;;;;;-128.00;-1.00;-1.00;102733;1261;1005482;-81
2023/06/08 01:35:18;;;;;;;20.90;15.20;;;;;;;-128.00;-1.00;-1.00;102782;1262;1004446;-80
2023/06/08 01:37:50;;;;;;;20.70;14.80;;;;;;;-128.00;-1.00;-1.00;102688;1263;1003735;-79
2023/06/08 01:40:33;;;;;;;17.00;14.40;;;;;;;-128.00;-1.00;-1.00;102793;1261;1065023;-79
2023/06/08 01:43:00;;;;;;;15.00;11.70;;;;;;;-128.00;-1.00;-1.00;102746;1260;1059659;-82
2023/06/08 01:45:28;;;;;;;20.10;12.50;;;;;;;-128.00;-1.00;-1.00;102653;1261;1003897;-79
2023/06/08 01:47:57;;;;;;;17.00;12.40;;;;;;;-128.00;-1.00;-1.00;102779;1261;1003488;-81
2023/06/08 01:50:24;;;;;;;15.90;12.80;;;;;;;-128.00;-1.00;-1.00;102666;1259;1050600;-79
2023/06/08 01:52:50;;;;;;;17.10;11.20;;;;;;;-128.00;-1.00;-1.00;102644;1260;1005322;-81
2023/06/08 01:55:17;;;;;;;16.60;11.30;;;;;;;-128.00;-1.00;-1.00;102572;1261;1005918;-81
2023/06/08 01:57:44;;;;;;;16.70;11.40;;;;;;;-128.00;-1.00;-1.00;102670;1260;1004994;-79
2023/06/08 02:00:12;;;;;;;18.30;12.20;;;;;;;-128.00;-1.00;-1.00;102658;1260;1004035;-81
2023/06/08 02:02:38;;;;;;;17.10;12.60;;;;;;;-128.00;-1.00;-1.00;105194;1260;1003688;-82
2023/06/08 02:05:08;;;;;;;16.30;12.30;;;;;;;-128.00;-1.00;-1.00;105204;1259;1004463;-80
2023/06/08 02:07:35;;;;;;;18.80;12.30;;;;;;;-128.00;-1.00;-1.00;105198;1260;1058264;-80
2023/06/08 02:10:03;;;;;;;22.10;13.80;;;;;;;-128.00;-1.00;-1.00;105178;1263;1004496;-80
2023/06/08 02:12:30;;;;;;;17.30;11.90;;;;;;;-128.00;-1.00;-1.00;105170;1260;1004536;-80
2023/06/08 02:14:56;;;;;;;18.00;12.20;;;;;;;-128.00;-1.00;-1.00;105209;1258;1004363;-82
2023/06/08 02:17:27;;;;;;;19.60;12.10;;;;;;;-128.00;-1.00;-1.00;103279;1260;1004998;-81
2023/06/08 02:19:54;;;;;;;16.90;12.50;;;;;;;-128.00;-1.00;-1.00;102677;1263;1058378;-79
2023/06/08 02:22:20;;;;;;;17.50;12.80;;;;;;;-128.00;-1.00;-1.00;102686;1260;1004469;-80
2023/06/08 02:24:48;;;;;;;20.50;14.60;;;;;;;-128.00;-1.00;-1.00;102713;1264;1003991;-79
2023/06/08 02:27:15;;;;;;;17.00;12.60;;;;;;;-128.00;-1.00;-1.00;105191;1259;1005049;-80
2023/06/08 02:29:41;;;;;;;20.90;12.80;;;;;;;-128.00;-1.00;-1.00;102705;1260;1003851;-80
2023/06/08 02:32:08;;;;;;;20.10;13.10;;;;;;;-128.00;-1.00;-1.00;103244;1260;1004410;-82
2023/06/08 02:34:36;;;;;;;18.30;13.40;;;;;;;-128.00;-1.00;-1.00;105166;1259;1003363;-80
2023/06/08 02:37:03;;;;;;;15.60;12.20;;;;;;;-128.00;-1.00;-1.00;105191;1260;1005169;-82
2023/06/08 02:39:30;;;;;;;18.10;13.60;;;;;;;-128.00;-1.00;-1.00;105159;1260;1004057;-79
2023/06/08 02:41:56;;;;;;;20.30;13.00;;;;;;;-128.00;-1.00;-1.00;103582;1260;1004885;-81
2023/06/08 02:44:23;;;;;;;19.10;12.60;;;;;;;-128.00;-1.00;-1.00;102713;1264;1005234;-79
2023/06/08 02:46:49;;;;;;;16.10;11.00;;;;;;;-128.00;-1.00;-1.00;102677;1259;1005403;-81
2023/06/08 02:49:15;;;;;;;20.50;13.90;;;;;;;-128.00;-1.00;-1.00;102634;1259;1004912;-79
2023/06/08 02:51:42;;;;;;;19.90;12.40;;;;;;;-128.00;-1.00;-1.00;102695;1260;1004344;-81
2023/06/08 02:54:08;;;;;;;18.60;12.40;;;;;;;-128.00;-1.00;-1.00;102689;1260;1004225;-81
2023/06/08 02:56:35;;;;;;;16.90;11.70;;;;;;;-128.00;-1.00;-1.00;102599;1260;1005702;-82
2023/06/08 02:59:02;;;;;;;19.70;12.40;;;;;;;-128.00;-1.00;-1.00;102681;1260;1005266;-82
2023/06/08 03:01:30;;;;;;;17.00;11.20;;;;;;;-128.00;-1.00;-1.00;102667;1261;1004089;-82
2023/06/08 03:03:56;;;;;;;14.40;10.00;;;;;;;-128.00;-1.00;-1.00;102727;1259;1003616;-79
2023/06/08 03:06:26;;;;;;;15.50;10.50;;;;;;;-128.00;-1.00;-1.00;102729;1263;1007429;-82
2023/06/08 03:08:53;;;;;;;12.50;8.70;;;;;;;-128.00;-1.00;-1.00;102479;1260;1060685;-81
2023/06/08 03:11:21;;;;;;;15.40;9.20;;;;;;;-128.00;-1.00;-1.00;102526;1260;1004054;-79
2023/06/08 03:13:48;;;;;;;15.40;10.10;;;;;;;-128.00;-1.00;-1.00;102484;1260;1003890;-79
2023/06/08 03:16:15;;;;;;;14.40;9.70;;;;;;;-128.00;-1.00;-1.00;102678;1260;1005241;-79
2023/06/08 03:18:42;;;;;;;15.60;9.90;;;;;;;-128.00;-1.00;-1.00;102660;1259;1006894;-79
2023/06/08 03:21:09;;;;;;;20.30;11.20;;;;;;;-128.00;-1.00;-1.00;102728;1261;1003693;-82
2023/06/08 03:23:37;;;;;;;14.50;9.40;;;;;;;-128.00;-1.00;-1.00;102685;1263;1005057;-81
2023/06/08 03:26:04;;;;;;;15.90;9.50;;;;;;;-128.00;-1.00;-1.00;102674;1260;1007524;-79
2023/06/08 03:28:30;;;;;;;15.40;10.00;;;;;;;-128.00;-1.00;-1.00;102559;1259;1004905;-81
2023/06/08 03:30:57;;;;;;;18.00;11.20;;;;;;;-128.00;-1.00;-1.00;102600;1259;1004082;-79
2023/06/08 03:33:24;;;;;;;15.90;10.80;;;;;;;-128.00;-1.00;-1.00;102865;1260;1004115;-83
2023/06/08 03:35:50;;;;;;;13.90;8.90;;;;;;;-128.00;-1.00;-1.00;102777;1260;1003985;-79
2023/06/08 03:38:17;;;;;;;12.80;8.70;;;;;;;-128.00;-1.00;-1.00;102769;1260;1004326;-79
2023/06/08 03:40:43;;;;;;;12.70;8.60;;;;;;;-128.00;-1.00;-1.00;102682;1260;1004397;-82
2023/06/08 03:43:10;;;;;;;15.50;8.50;;;;;;;-128.00;-1.00;-1.00;102727;1261;1004471;-81
2023/06/08 03:45:36;;;;;;;10.90;7.80;;;;;;;-128.00;-1.00;-1.00;102424;1265;1004699;-79
2023/06/08 03:48:03;;;;;;;11.30;8.10;;;;;;;-128.00;-1.00;-1.00;102703;1261;1004113;-78
2023/06/08 03:50:30;;;;;;;13.40;8.00;;;;;;;-128.00;-1.00;-1.00;102403;1259;1004175;-82
2023/06/08 03:52:56;;;;;;;8.20;6.00;;;;;;;-128.00;-1.00;-1.00;102446;1260;1004742;-81
2023/06/08 03:55:26;;;;;;;9.10;6.50;;;;;;;-128.00;-1.00;-1.00;102610;1259;1005425;-82
2023/06/08 03:57:53;;;;;;;9.70;6.80;;;;;;;-128.00;-1.00;-1.00;102631;1259;1058239;-79
2023/06/08 04:00:20;;;;;;;7.00;5.30;;;;;;;-128.00;-1.00;-1.00;102462;1260;1004235;-81
2023/06/08 04:02:46;;;;;;;8.70;6.00;;;;;;;-128.00;-1.00;-1.00;102618;1263;1004740;-79
2023/06/08 04:05:13;;;;;;;7.30;4.80;;;;;;;-128.00;-1.00;-1.00;102583;1259;1006531;-81
2023/06/08 04:07:41;;;;;;;7.40;5.30;;;;;;;-128.00;-1.00;-1.00;102591;1259;1004014;-81
2023/06/08 04:10:08;;;;;;;8.10;6.20;;;;;;;-128.00;-1.00;-1.00;102623;1260;1004686;-82
2023/06/08 04:12:35;;;;;;;7.70;6.00;;;;;;;-128.00;-1.00;-1.00;102544;1263;1004128;-79
2023/06/08 04:15:01;;;;;;;9.20;6.80;;;;;;;-128.00;-1.00;-1.00;102541;1259;1005553;-79
2023/06/08 04:17:28;;;;;;;7.20;6.00;;;;;;;-128.00;-1.00;-1.00;102546;1259;1004376;-82
2023/06/08 04:19:54;;;;;;;11.60;6.00;;;;;;;-128.00;-1.00;-1.00;102552;1259;1005494;-82
2023/06/08 04:22:22;;;;;;;7.80;5.70;;;;;;;-128.00;-1.00;-1.00;102556;1260;1006111;-79
2023/06/08 04:24:48;;;;;;;6.80;5.40;;;;;;;-128.00;-1.00;-1.00;102702;1259;1003381;-79
2023/06/08 04:27:16;;;;;;;8.30;5.50;;;;;;;-128.00;-1.00;-1.00;102587;1260;1004641;-79
2023/06/08 04:29:42;;;;;;;9.60;7.20;;;;;;;-128.00;-1.00;-1.00;102632;1261;1007142;-82
2023/06/08 04:32:10;;;;;;;12.10;9.50;;;;;;;-128.00;-1.00;-1.00;102557;1259;1004754;-79
2023/06/08 04:34:37;;;;;;;10.60;8.00;;;;;;;-128.00;-1.00;-1.00;102562;1261;1005356;-79
2023/06/08 04:37:03;;;;;;;15.40;13.10;;;;;;;-128.00;-1.00;-1.00;102571;1259;1005259;-79
2023/06/08 04:39:30;;;;;;;12.70;10.10;;;;;;;-128.00;-1.00;-1.00;102589;1259;1004691;-78
2023/06/08 04:41:57;;;;;;;11.20;8.00;;;;;;;-128.00;-1.00;-1.00;102560;1259;1003667;-81
2023/06/08 04:44:24;;;;;;;9.00;6.80;;;;;;;-128.00;-1.00;-1.00;102568;1265;1004482;-79
2023/06/08 04:46:50;;;;;;;9.90;6.80;;;;;;;-128.00;-1.00;-1.00;102575;1263;1005110;-80
2023/06/08 04:49:17;;;;;;;8.70;6.50;;;;;;;-128.00;-1.00;-1.00;102481;1264;1004607;-81
2023/06/08 04:51:46;;;;;;;8.30;5.60;;;;;;;-128.00;-1.00;-1.00;102376;1261;1006325;-78
2023/06/08 04:54:17;;;;;;;;;;;;;;;-128.00;-1.00;-1.00;102439;1264;1048634;-78
2023/06/08 04:56:45;;;;;;;13.40;7.70;;;;;;;-128.00;-1.00;-1.00;102457;1260;1062145;-78
2023/06/08 04:59:11;;;;;;;10.90;8.00;;;;;;;-128.00;-1.00;-1.00;102450;1261;1004623;-78
2023/06/08 05:01:38;;;;;;;11.70;8.20;;;;;;;-128.00;-1.00;-1.00;102361;1264;1004151;-79
2023/06/08 05:04:08;;;;;;;10.10;6.70;;;;;;;-128.00;-1.00;-1.00;102366;1265;1004518;-78
2023/06/08 05:06:34;;;;;;;9.70;6.40;;;;;;;-128.00;-1.00;-1.00;102391;1259;1047843;-81
2023/06/08 05:09:01;;;;;;;8.90;6.50;;;;;;;-128.00;-1.00;-1.00;102368;1264;1005354;-79
2023/06/08 05:11:27;;;;;;;9.20;6.50;;;;;;;-128.00;-1.00;-1.00;102393;1260;1004486;-82
2023/06/08 05:13:54;;;;;;;9.00;7.30;;;;;;;-128.00;-1.00;-1.00;102447;1260;1004343;-81
2023/06/08 05:16:20;;;;;;;11.20;9.70;;;;;;;-128.00;-1.00;-1.00;102409;1261;1004822;-79
2023/06/08 05:18:47;;;;;;;9.70;8.10;;;;;;;-128.00;-1.00;-1.00;102370;1260;1005111;-79
2023/06/08 05:21:13;;;;;;;11.30;6.60;;;;;;;-128.00;-1.00;-1.00;102473;1259;1005914;-79
2023/06/08 05:23:40;;;;;;;10.50;7.10;;;;;;;-128.00;-1.00;-1.00;102541;1259;1003559;-79
2023/06/08 05:26:06;;;;;;;8.80;6.70;;;;;;;-128.00;-1.00;-1.00;102546;1259;1004147;-80
2023/06/08 05:28:32;;;;;;;8.70;6.40;;;;;;;-128.00;-1.00;-1.00;102557;1260;1003809;-81
2023/06/08 05:31:00;;;;;;;10.50;6.70;;;;;;;-128.00;-1.00;-1.00;102547;1259;1005921;-79
2023/06/08 05:33:27;;;;;;;8.90;6.40;;;;;;;-128.00;-1.00;-1.00;102616;1260;1004641;-81
2023/06/08 05:35:53;;;;;;;7.80;5.80;;;;;;;-128.00;-1.00;-1.00;102631;1259;1004620;-83
2023/06/08 05:38:20;;;;;;;8.80;6.70;;;;;;;-128.00;-1.00;-1.00;102481;1259;1005327;-79
2023/06/08 05:40:46;;;;;;;7.80;6.00;;;;;;;-128.00;-1.00;-1.00;102641;1260;1003953;-81
2023/06/08 05:43:13;;;;;;;8.40;5.60;;;;;;;-128.00;-1.00;-1.00;102681;1260;1004524;-81
2023/06/08 05:45:39;;;;;;;8.80;5.30;;;;;;;-128.00;-1.00;-1.00;102574;1259;1004780;-79
2023/06/08 05:48:07;;;;;;;7.10;5.70;;;;;;;-128.00;-1.00;-1.00;102547;1260;1005775;-81
2023/06/08 05:50:34;;;;;;;9.70;6.40;;;;;;;-128.00;-1.00;-1.00;102504;1259;1004986;-78
2023/06/08 05:53:00;;;;;;;7.20;5.90;;;;;;;-128.00;-1.00;-1.00;102378;1259;1005395;-81
2023/06/08 05:55:27;;;;;;;7.00;6.30;;;;;;;-128.00;-1.00;-1.00;102629;1259;1004530;-79
2023/06/08 05:57:53;;;;;;;10.20;6.50;;;;;;;-128.00;-1.00;-1.00;102589;1259;1003961;-81
2023/06/08 06:00:20;;;;;;;6.40;5.70;;;;;;;-128.00;-1.00;-1.00;102506;1260;1004433;-78
2023/06/08 06:02:47;;;;;;;8.20;6.60;;;;;;;-128.00;-1.00;-1.00;102553;1259;1004395;-79
2023/06/08 06:05:13;;;;;;;7.50;6.40;;;;;;;-128.00;-1.00;-1.00;102559;1259;1003743;-79
2023/06/08 06:07:40;;;;;;;9.40;6.70;;;;;;;-128.00;-1.00;-1.00;102504;1260;1004870;-81
2023/06/08 06:10:07;;;;;;;9.40;6.40;;;;;;;-128.00;-1.00;-1.00;102571;1259;1004652;-79
2023/06/08 06:12:33;;;;;;;8.70;5.70;;;;;;;-128.00;-1.00;-1.00;102510;1259;1004387;-81
2023/06/08 06:14:59;;;;;;;11.10;7.20;;;;;;;-128.00;-1.00;-1.00;102496;1258;1006364;-81
2023/06/08 06:17:26;;;;;;;7.50;5.90;;;;;;;-128.00;-1.00;-1.00;102492;1263;1004710;-79
2023/06/08 06:19:52;;;;;;;8.60;5.60;;;;;;;-128.00;-1.00;-1.00;102545;1259;1004903;-79
2023/06/08 06:22:19;;;;;;;6.60;5.00;;;;;;;-128.00;-1.00;-1.00;102529;1259;1004160;-79
2023/06/08 06:24:45;;;;;;;6.40;5.60;;;;;;;-128.00;-1.00;-1.00;102571;1259;1004460;-79
2023/06/08 06:27:12;;;;;;;7.90;5.70;;;;;;;-128.00;-1.00;-1.00;102493;1259;1004744;-82
2023/06/08 06:29:38;;;;;;;8.20;6.20;;;;;;;-128.00;-1.00;-1.00;102504;1259;1005121;-82
2023/06/08 06:32:05;;;;;;;7.80;5.90;;;;;;;-128.00;-1.00;-1.00;102533;1259;1003802;-82
2023/06/08 06:34:32;;;;;;;8.70;6.70;;;;;;;-128.00;-1.00;-1.00;102516;1259;1007139;-83
2023/06/08 06:36:59;;;;;;;8.50;6.80;;;;;;;-128.00;-1.00;-1.00;102318;1259;1004470;-81
2023/06/08 06:39:26;;;;;;;9.50;7.80;;;;;;;-128.00;-1.00;-1.00;102524;1259;1004662;-82
2023/06/08 06:41:53;;;;;;;8.10;7.10;;;;;;;-128.00;-1.00;-1.00;102492;1263;1004219;-81
2023/06/08 06:44:19;;;;;;;7.40;6.50;;;;;;;-128.00;-1.00;-1.00;102560;1262;1003974;-81
2023/06/08 06:46:46;;;;;;;7.40;6.30;;;;;;;-128.00;-1.00;-1.00;102415;1260;1004480;-82
2023/06/08 06:49:12;;;;;;;8.60;7.50;;;;;;;-128.00;-1.00;-1.00;102606;1259;1003570;-83
2023/06/08 06:51:42;;;;;;;7.10;6.00;;;;;;;-128.00;-1.00;-1.00;102372;1260;1004697;-83
2023/06/08 06:54:09;;;;;;;8.50;7.10;;;;;;;-128.00;-1.00;-1.00;102676;1264;1048938;-81
2023/06/08 06:56:35;;;;;;;8.20;6.60;;;;;;;-128.00;-1.00;-1.00;102561;1259;1004745;-83
2023/06/08 06:59:02;;;;;;;13.40;6.40;;;;;;;-128.00;-1.00;-1.00;102601;1259;1004837;-82
2023/06/08 07:01:31;;;;;;;10.50;6.50;;;;;;;-128.00;-1.00;-1.00;102616;1259;1003951;-79
2023/06/08 07:03:57;;;;;;;13.30;7.00;;;;;;;-128.00;-1.00;-1.00;102421;1259;1005607;-82
2023/06/08 07:06:24;;;;;;;8.10;7.00;;;;;;;-128.00;-1.00;-1.00;102618;1262;1003755;-82
2023/06/08 07:08:50;;;;;;;7.90;6.80;;;;;;;-128.00;-1.00;-1.00;102570;1259;1004405;-82
2023/06/08 07:11:17;;;;;;;8.30;7.20;;;;;;;-128.00;-1.00;-1.00;102561;1259;1005194;-79
2023/06/08 07:13:43;;;;;;;8.80;6.60;;;;;;;-128.00;-1.00;-1.00;102553;1259;1004457;-82
2023/06/08 07:16:10;;;;;;;8.40;6.80;;;;;;;-128.00;-1.00;-1.00;102484;1259;1004326;-82
2023/06/08 07:18:37;;;;;;;8.60;7.00;;;;;;;-128.00;-1.00;-1.00;102432;1259;1004497;-82
2023/06/08 07:21:03;;;;;;;7.60;6.20;;;;;;;-128.00;-1.00;-1.00;102569;1259;1004989;-82
2023/06/08 07:23:30;;;;;;;7.80;6.40;;;;;;;-128.00;-1.00;-1.00;102797;1259;1004688;-79
2023/06/08 07:25:56;;;;;;;6.20;5.50;;;;;;;-128.00;-1.00;-1.00;102492;1264;1003663;-82
2023/06/08 07:28:23;;;;;;;10.30;6.10;;;;;;;-128.00;-1.00;-1.00;102656;1259;1004590;-83
2023/06/08 07:30:49;;;;;;;8.70;6.00;;;;;;;-128.00;-1.00;-1.00;102578;1262;1004129;-81
2023/06/08 07:33:16;;;;;;;9.10;7.50;;;;;;;-128.00;-1.00;-1.00;102602;1260;1005113;-79
2023/06/08 07:35:43;;;;;;;9.50;7.30;;;;;;;-128.00;-1.00;-1.00;102586;1259;1004500;-79
2023/06/08 07:38:10;;;;;;;8.30;7.40;;;;;;;-128.00;-1.00;-1.00;102568;1260;1005061;-79
2023/06/08 07:40:36;;;;;;;9.60;7.10;;;;;;;-128.00;-1.00;-1.00;102544;1259;1004407;-80
2023/06/08 07:43:02;;;;;;;10.20;7.80;;;;;;;-128.00;-1.00;-1.00;102511;1259;1004340;-82
2023/06/08 07:45:29;;;;;;;10.70;8.70;;;;;;;-128.00;-1.00;-1.00;102525;1259;1004749;-82
2023/06/08 07:47:56;;;;;;;13.10;9.70;;;;;;;-128.00;-1.00;-1.00;102582;1259;1005161;-81
2023/06/08 07:50:22;;;;;;;13.60;10.90;;;;;;;-128.00;-1.00;-1.00;102515;1260;1004909;-82
2023/06/08 07:52:49;;;;;;;15.90;11.50;;;;;;;-128.00;-1.00;-1.00;102420;1259;1004073;-80
2023/06/08 07:55:16;;;;;;;13.20;11.40;;;;;;;-128.00;-1.00;-1.00;102423;1263;1006550;-83
2023/06/08 07:57:44;;;;;;;13.50;10.80;;;;;;;-128.00;-1.00;-1.00;102554;1259;1003767;-79
2023/06/08 08:00:11;;;;;;;14.20;10.40;;;;;;;-128.00;-1.00;-1.00;102602;1259;1004003;-80
2023/06/08 08:02:38;;;;;;;15.50;12.10;;;;;;;-128.00;-1.00;-1.00;102423;1260;1004553;-80
2023/06/08 08:05:07;;;;;;;17.60;14.80;;;;;;;-128.00;-1.00;-1.00;102658;1260;1004796;-80
2023/06/08 08:07:35;;;;;;;17.10;12.90;;;;;;;-128.00;-1.00;-1.00;102515;1260;1049160;-83
2023/06/08 08:10:02;;;;;;;13.30;10.00;;;;;;;-128.00;-1.00;-1.00;102596;1259;1004200;-80
2023/06/08 08:12:28;;;;;;;12.00;10.50;;;;;;;-128.00;-1.00;-1.00;102555;1259;1005855;-82
2023/06/08 08:14:54;;;;;;;12.10;9.70;;;;;;;-128.00;-1.00;-1.00;102514;1259;1005416;-80
2023/06/08 08:17:21;;;;;;;13.00;9.80;;;;;;;-128.00;-1.00;-1.00;102358;1259;1003979;-82
2023/06/08 08:19:48;;;;;;;11.60;9.60;;;;;;;-128.00;-1.00;-1.00;102522;1259;1004486;-80
2023/06/08 08:22:14;;;;;;;12.70;9.60;;;;;;;-128.00;-1.00;-1.00;102516;1259;1004688;-82
2023/06/08 08:24:40;;;;;;;12.80;10.80;;;;;;;-128.00;-1.00;-1.00;102529;1259;1004744;-80
2023/06/08 08:27:07;;;;;;;15.80;11.10;;;;;;;-128.00;-1.00;-1.00;102598;1259;1004538;-80
2023/06/08 08:29:33;;;;;;;16.00;11.40;;;;;;;-128.00;-1.00;-1.00;102542;1260;1004819;-83
2023/06/08 08:32:00;;;;;;;12.70;11.10;;;;;;;-128.00;-1.00;-1.00;102532;1259;1004991;-82
2023/06/08 08:34:26;;;;;;;18.20;15.00;;;;;;;-128.00;-1.00;-1.00;102544;1259;1005029;-79
2023/06/08 08:36:53;;;;;;;17.50;12.50;;;;;;;-128.00;-1.00;-1.00;102545;1259;1003605;-83
2023/06/08 08:39:19;;;;;;;16.60;13.30;;;;;;;-128.00;-1.00;-1.00;102614;1259;1004469;-83
2023/06/08 08:41:46;;;;;;;15.90;12.50;;;;;;;-128.00;-1.00;-1.00;102485;1259;1006063;-82
2023/06/08 08:44:18;;;;;;;17.10;12.80;;;;;;;-128.00;-1.00;-1.00;102395;1259;1004680;-80
2023/06/08 08:46:45;;;;;;;17.10;14.20;;;;;;;-128.00;-1.00;-1.00;102696;1259;1047263;-80
2023/06/08 08:49:15;;;;;;;19.30;15.30;;;;;;;-128.00;-1.00;-1.00;102552;1264;1003851;-82
2023/06/08 08:51:47;;;;;;;20.20;15.20;;;;;;;-128.00;-1.00;-1.00;103250;1259;1058607;-80
2023/06/08 08:54:13;;;;;;;19.80;15.30;;;;;;;-128.00;-1.00;-1.00;102634;1259;1060922;-83
2023/06/08 08:56:40;;;;;;;17.20;14.20;;;;;;;-128.00;-1.00;-1.00;102813;1259;1004709;-80
2023/06/08 08:59:07;;;;;;;17.90;14.20;;;;;;;-128.00;-1.00;-1.00;102639;1259;1004641;-80
2023/06/08 09:01:34;;;;;;;23.70;15.40;;;;;;;-128.00;-1.00;-1.00;102603;1263;1004521;-80
2023/06/08 09:04:01;;;;;;;20.40;15.30;;;;;;;-128.00;-1.00;-1.00;102483;1263;1003984;-79
2023/06/08 09:06:30;;;;;;;17.80;14.30;;;;;;;-128.00;-1.00;-1.00;103723;1259;1005282;-79
2023/06/08 09:08:57;;;;;;;18.90;12.40;;;;;;;-128.00;-1.00;-1.00;103108;1260;1046141;-79
2023/06/08 09:11:23;;;;;;;14.10;12.30;;;;;;;-128.00;-1.00;-1.00;102742;1260;1004425;-81
2023/06/08 09:14:05;;;;;;;15.40;12.50;;;;;;;-128.00;-1.00;-1.00;102514;1259;1003406;-81
2023/06/08 09:16:43;;;;;;;14.10;12.60;;;;;;;-128.00;-1.00;-1.00;102524;1259;1061790;-81
2023/06/08 09:19:10;;;;;;;13.80;10.80;;;;;;;-128.00;-1.00;-1.00;102532;1263;1063214;-79
2023/06/08 09:21:36;;;;;;;15.20;12.50;;;;;;;-128.00;-1.00;-1.00;102635;1259;1004892;-80
2023/06/08 09:24:11;;;;;;;12.90;10.50;;;;;;;-128.00;-1.00;-1.00;102555;1259;1005950;-80
2023/06/08 09:26:56;;;;;;;12.20;10.80;;;;;;;-128.00;-1.00;-1.00;102493;1259;1064315;-80
2023/06/08 09:29:34;;;;;;;11.70;10.50;;;;;;;-128.00;-1.00;-1.00;102493;1264;1060763;-80
2023/06/08 09:32:01;;;;;;;12.70;10.30;;;;;;;-128.00;-1.00;-1.00;102613;1261;1060963;-81
2023/06/08 09:34:33;;;;;;;11.70;10.10;;;;;;;-128.00;-1.00;-1.00;102696;1259;1004886;-80
2023/06/08 09:37:06;;;;;;;12.90;10.30;;;;;;;-128.00;-1.00;-1.00;102569;1260;1049087;-82
2023/06/08 09:39:39;;;;;;;13.60;11.00;;;;;;;-128.00;-1.00;-1.00;102673;1259;1065458;-82
2023/06/08 09:42:06;;;;;;;14.30;9.90;;;;;;;-128.00;-1.00;-1.00;102699;1260;1060634;-82
2023/06/08 09:44:32;;;;;;;12.10;10.80;;;;;;;-128.00;-1.00;-1.00;102534;1259;1004478;-80
2023/06/08 09:46:59;;;;;;;17.40;12.70;;;;;;;-128.00;-1.00;-1.00;102526;1259;1008102;-80
2023/06/08 09:49:25;;;;;;;16.60;11.30;;;;;;;-128.00;-1.00;-1.00;102636;1259;1004704;-83
2023/06/08 09:51:52;;;;;;;15.70;11.70;;;;;;;-128.00;-1.00;-1.00;102540;1259;1004289;-80
2023/06/08 09:54:19;;;;;;;13.40;11.30;;;;;;;-128.00;-1.00;-1.00;102510;1259;1004016;-83
2023/06/08 09:56:47;;;;;;;11.60;10.40;;;;;;;-128.00;-1.00;-1.00;102523;1259;1003904;-80
2023/06/08 09:59:16;;;;;;;12.00;9.60;;;;;;;-128.00;-1.00;-1.00;102523;1259;1004447;-82
2023/06/08 10:01:46;;;;;;;10.20;9.00;;;;;;;-128.00;-1.00;-1.00;102632;1262;1047537;-83
2023/06/08 10:04:23;;;;;;;10.60;9.50;;;;;;;-128.00;-1.00;-1.00;102529;1263;1061686;-82
2023/06/08 10:07:12;;;;;;;13.20;9.60;;;;;;;-128.00;-1.00;-1.00;102549;1259;1060556;-82
2023/06/08 10:09:41;;;;;;;11.30;8.70;;;;;;;-128.00;-1.00;-1.00;102503;1259;1059152;-82
2023/06/08 10:12:08;;;;;;;11.60;10.00;;;;;;;-128.00;-1.00;-1.00;102524;1262;1044337;-80
2023/06/08 10:14:35;;;;;;;10.10;9.00;;;;;;;-128.00;-1.00;-1.00;102496;1259;1004098;-82
2023/06/08 10:17:01;;;;;;;10.10;9.00;;;;;;;-128.00;-1.00;-1.00;102423;1260;1004691;-82
2023/06/08 10:19:28;;;;;;;12.70;9.80;;;;;;;-128.00;-1.00;-1.00;102494;1259;1003696;-80
2023/06/08 10:21:54;;;;;;;11.70;10.20;;;;;;;-128.00;-1.00;-1.00;102395;1259;1003888;-80
2023/06/08 10:24:21;;;;;;;11.40;9.80;;;;;;;-128.00;-1.00;-1.00;102505;1259;1005410;-80
2023/06/08 10:26:51;;;;;;;11.00;9.80;;;;;;;-128.00;-1.00;-1.00;102556;1259;1005721;-80
2023/06/08 10:29:26;;;;;;;12.30;10.90;;;;;;;-128.00;-1.00;-1.00;102577;1263;1062631;-80
2023/06/08 10:31:52;;;;;;;11.90;10.60;;;;;;;-128.00;-1.00;-1.00;102684;1259;1058041;-82
2023/06/08 10:34:19;;;;;;;12.30;9.50;;;;;;;-128.00;-1.00;-1.00;102574;1259;1004682;-83
2023/06/08 10:36:46;;;;;;;15.60;9.70;;;;;;;-128.00;-1.00;-1.00;102501;1259;1004377;-82
2023/06/08 10:39:14;;;;;;;13.90;8.50;;;;;;;-128.00;-1.00;-1.00;102576;1259;1004648;-82
2023/06/08 10:41:58;;;;;;;11.10;8.40;;;;;;;-128.00;-1.00;-1.00;103452;1259;1004345;-80
2023/06/08 10:44:30;;;;;;;12.30;9.00;;;;;;;-128.00;-1.00;-1.00;102479;1262;1058327;-82
2023/06/08 10:47:05;;;;;;;12.90;9.50;;;;;;;-128.00;-1.00;-1.00;102597;1259;1061810;-82
2023/06/08 10:49:33;;;;;;;11.00;9.80;;;;;;;-128.00;-1.00;-1.00;102483;1264;1045809;-82
2023/06/08 10:52:00;;;;;;;12.00;8.80;;;;;;;-128.00;-1.00;-1.00;102594;1259;1004362;-80
2023/06/08 10:54:27;;;;;;;10.70;8.50;;;;;;;-128.00;-1.00;-1.00;102436;1259;1004458;-80
2023/06/08 10:56:55;;;;;;;11.80;8.70;;;;;;;-128.00;-1.00;-1.00;102444;1259;1004607;-83
2023/06/08 10:59:32;;;;;;;12.00;9.50;;;;;;;-128.00;-1.00;-1.00;102649;1259;1004935;-82
2023/06/08 11:02:00;;;;;;;10.00;8.80;;;;;;;-128.00;-1.00;-1.00;102446;1264;1046592;-80
2023/06/08 11:04:29;;;;;;;10.30;8.90;;;;;;;-128.00;-1.00;-1.00;102511;1259;1047336;-83
2023/06/08 11:07:02;;;;;;;12.60;9.60;;;;;;;-128.00;-1.00;-1.00;102439;1259;1004510;-82
2023/06/08 11:09:30;;;;;;;12.60;9.70;;;;;;;-128.00;-1.00;-1.00;102428;1265;1058117;-82
2023/06/08 11:11:57;;;;;;;13.10;9.90;;;;;;;-128.00;-1.00;-1.00;102528;1259;1003911;-80